Time;durP1;ratioP1;P1;durP2;ratioP2;P2;SDS_P1;SDS_P2;PMS_P1;PMS_P2;Temp;Humidity;BMP_temperature;BMP_pressure;BME280_temperature;BME280_humidity;BME280_pressure;Samples;Min_cycle;Max_cycle;Signal;HPM_P1;HPM_P2
2020/12/30 00:00:17;;;;;;;1.67;1.03;;;;;;;2.77;92.63;99241.69;5055823;28;20460;-64
2020/12/30 00:02:43;;;;;;;0.40;0.30;;;;;;;2.73;93.48;99241.47;5055870;28;20470;-64
2020/12/30 00:05:12;;;;;;;0.93;0.83;;;;;;;2.76;93.66;99248.13;5055430;28;20896;-65
2020/12/30 00:07:39;;;;;;;1.60;1.33;;;;;;;2.79;93.78;99252.91;5056651;28;20453;-65
2020/12/30 00:10:07;;;;;;;0.40;0.33;;;;;;;2.76;93.01;99237.44;5057337;28;20450;-64
2020/12/30 00:12:34;;;;;;;0.40;0.30;;;;;;;2.72;92.92;99237.19;5056574;28;20905;-64
2020/12/30 00:15:01;;;;;;;0.40;0.30;;;;;;;2.72;93.10;99239.88;5056812;28;20446;-65
2020/12/30 00:17:28;;;;;;;0.40;0.30;;;;;;;2.72;93.74;99237.19;5057974;28;20454;-65
2020/12/30 00:19:54;;;;;;;1.33;0.47;;;;;;;2.76;93.37;99235.56;5057792;28;20450;-65
2020/12/30 00:22:20;;;;;;;0.67;0.40;;;;;;;2.78;93.83;99238.72;5056200;28;20470;-67
2020/12/30 00:24:46;;;;;;;0.40;0.30;;;;;;;2.84;94.30;99239.50;5055547;28;20438;-66
2020/12/30 00:27:13;;;;;;;0.40;0.30;;;;;;;2.86;93.51;99241.88;5054075;28;20438;-66
2020/12/30 00:29:40;;;;;;;0.40;0.30;;;;;;;2.91;92.91;99247.16;5055968;28;20977;-67
2020/12/30 00:32:09;;;;;;;0.40;0.30;;;;;;;2.91;93.48;99242.63;5057352;28;20494;-66
2020/12/30 00:34:35;;;;;;;0.40;0.30;;;;;;;2.93;93.13;99243.16;5057324;28;20484;-66
2020/12/30 00:37:01;;;;;;;0.40;0.30;;;;;;;2.97;92.56;99254.06;5057119;28;20823;-66
2020/12/30 00:39:27;;;;;;;0.40;0.30;;;;;;;2.98;92.30;99253.78;5058184;28;20972;-65
2020/12/30 00:41:56;;;;;;;0.80;0.40;;;;;;;3.02;91.58;99262.03;5057138;28;20485;-66
2020/12/30 00:44:22;;;;;;;0.50;0.47;;;;;;;3.01;91.94;99261.25;5056464;28;20473;-65
2020/12/30 00:46:52;;;;;;;0.43;0.40;;;;;;;2.99;92.27;99257.25;5056868;28;20453;-67
2020/12/30 00:49:19;;;;;;;0.40;0.30;;;;;;;2.95;92.47;99257.00;5056561;28;20438;-65
2020/12/30 00:51:50;;;;;;;0.93;0.50;;;;;;;2.90;93.63;99257.06;5056987;28;20484;-65
2020/12/30 00:54:16;;;;;;;0.40;0.30;;;;;;;2.90;93.37;99264.31;5057928;28;20504;-65
2020/12/30 00:56:42;;;;;;;0.40;0.30;;;;;;;2.88;93.71;99258.41;5057527;28;20446;-66
2020/12/30 00:59:08;;;;;;;0.40;0.30;;;;;;;2.84;93.80;99260.88;5056832;28;20819;-65
2020/12/30 01:01:35;;;;;;;0.90;0.70;;;;;;;2.83;93.38;99264.63;5056746;28;20443;-66
2020/12/30 01:04:01;;;;;;;1.33;0.53;;;;;;;2.77;92.96;99261.19;5057636;28;20450;-66
2020/12/30 01:06:28;;;;;;;0.40;0.30;;;;;;;2.67;93.06;99260.50;5057247;28;20451;-65
2020/12/30 01:08:54;;;;;;;2.00;0.97;;;;;;;2.59;92.51;99267.25;5056953;28;20461;-66
2020/12/30 01:11:25;;;;;;;0.50;0.40;;;;;;;2.59;92.75;99282.50;5056935;28;20482;-65
2020/12/30 01:13:51;;;;;;;0.40;0.20;;;;;;;2.50;93.21;99274.28;5056718;28;20983;-66
2020/12/30 01:16:17;;;;;;;0.47;0.40;;;;;;;2.42;93.53;99280.22;5057991;28;20450;-66
2020/12/30 01:18:43;;;;;;;0.40;0.33;;;;;;;2.19;93.31;99292.41;5060173;28;20465;-66
2020/12/30 01:21:10;;;;;;;0.40;0.40;;;;;;;2.18;94.45;99280.94;5060635;28;20496;-66
2020/12/30 01:23:37;;;;;;;0.60;0.60;;;;;;;2.16;94.20;99280.41;5060125;28;20472;-65
2020/12/30 01:26:03;;;;;;;0.40;0.30;;;;;;;2.15;94.65;99281.47;5060592;28;20848;-66
2020/12/30 01:28:29;;;;;;;1.73;0.57;;;;;;;2.11;94.63;99279.66;5060789;28;20446;-65
2020/12/30 01:30:55;;;;;;;1.27;0.80;;;;;;;1.98;94.10;99281.06;5060524;28;20517;-66
2020/12/30 01:33:21;;;;;;;0.40;0.30;;;;;;;1.97;94.93;99284.81;5060284;28;20985;-65
2020/12/30 01:35:47;;;;;;;0.57;0.40;;;;;;;1.99;95.25;99283.47;5061336;28;20445;-66
2020/12/30 01:38:14;;;;;;;0.40;0.30;;;;;;;1.92;95.34;99279.50;5061357;28;20446;-65
2020/12/30 01:40:41;;;;;;;0.40;0.30;;;;;;;1.98;95.93;99284.53;5061202;28;20502;-66
2020/12/30 01:43:08;;;;;;;0.60;0.50;;;;;;;2.01;96.61;99289.31;5059585;28;20477;-66
2020/12/30 01:45:34;;;;;;;0.40;0.30;;;;;;;2.02;96.51;99287.44;5060289;28;20457;-65
2020/12/30 01:48:06;;;;;;;0.40;0.30;;;;;;;1.99;97.12;99288.81;5060941;28;20450;-66
2020/12/30 01:50:32;;;;;;;0.40;0.30;;;;;;;1.97;97.56;99290.16;5060252;28;20423;-65
2020/12/30 01:52:59;;;;;;;0.50;0.40;;;;;;;2.02;97.46;99298.91;5060547;28;20511;-66
2020/12/30 01:55:28;;;;;;;0.60;0.40;;;;;;;2.04;97.65;99290.66;5060854;28;20455;-66
2020/12/30 01:57:55;;;;;;;0.40;0.30;;;;;;;2.05;97.64;99292.25;5057750;28;20966;-65
2020/12/30 02:00:21;;;;;;;0.60;0.60;;;;;;;2.07;97.16;99290.06;5056722;28;20958;-65
2020/12/30 02:02:58;;;;;;;0.40;0.30;;;;;;;2.06;96.91;99296.50;5057016;28;20458;-65
2020/12/30 02:05:24;;;;;;;0.40;0.30;;;;;;;2.03;97.52;99287.16;5058073;28;20433;-67
2020/12/30 02:07:51;;;;;;;0.40;0.30;;;;;;;2.02;96.94;99295.44;5059219;28;20453;-65
2020/12/30 02:10:17;;;;;;;0.40;0.30;;;;;;;2.04;97.10;99290.66;5060054;28;20447;-65
2020/12/30 02:12:44;;;;;;;0.40;0.30;;;;;;;1.98;96.71;99291.72;5059610;28;20523;-65
2020/12/30 02:15:23;;;;;;;0.40;0.30;;;;;;;1.91;95.79;99297.41;5056892;28;20435;-66
2020/12/30 02:17:49;;;;;;;0.40;0.30;;;;;;;1.87;95.65;99301.69;5057494;28;20469;-67
2020/12/30 02:20:16;;;;;;;1.90;1.03;;;;;;;1.87;96.12;99304.34;5058014;28;20445;-65
2020/12/30 02:22:44;;;;;;;1.00;0.73;;;;;;;1.86;96.26;99302.75;5058671;28;20890;-66
2020/12/30 02:25:11;;;;;;;0.50;0.40;;;;;;;1.89;97.52;99299.53;5058802;28;20447;-67
2020/12/30 02:27:37;;;;;;;0.50;0.40;;;;;;;1.96;97.23;99304.56;5057660;28;20448;-65
2020/12/30 02:30:05;;;;;;;0.40;0.30;;;;;;;1.99;96.97;99299.50;5058625;28;20448;-66
2020/12/30 02:32:32;;;;;;;0.40;0.30;;;;;;;2.07;96.97;99305.31;5058077;28;20518;-66
2020/12/30 02:34:58;;;;;;;1.20;0.80;;;;;;;2.07;96.47;99299.97;5057901;28;20506;-66
2020/12/30 02:37:24;;;;;;;0.40;0.30;;;;;;;2.07;96.43;99305.31;5057816;28;20458;-66
2020/12/30 02:39:50;;;;;;;0.40;0.30;;;;;;;2.10;96.10;99308.22;5057911;28;20446;-66
2020/12/30 02:42:17;;;;;;;0.50;0.40;;;;;;;2.10;95.97;99308.22;5057832;28;20493;-65
2020/12/30 02:44:43;;;;;;;0.60;0.40;;;;;;;2.17;96.15;99306.06;5057986;28;20450;-67
2020/12/30 02:47:10;;;;;;;0.40;0.30;;;;;;;2.14;95.32;99311.94;5056808;28;20866;-65
2020/12/30 02:49:36;;;;;;;0.40;0.30;;;;;;;2.24;95.54;99311.88;5058080;28;20451;-66
2020/12/30 02:52:02;;;;;;;0.40;0.30;;;;;;;2.24;95.56;99306.53;5057556;28;20498;-67
2020/12/30 02:54:28;;;;;;;0.40;0.30;;;;;;;2.24;95.55;99309.19;5057258;28;20870;-65
2020/12/30 02:56:54;;;;;;;0.50;0.40;;;;;;;2.17;95.08;99307.91;5057174;28;20451;-66
2020/12/30 02:59:21;;;;;;;0.60;0.50;;;;;;;2.21;95.46;99307.09;5057373;28;20507;-64
2020/12/30 03:01:47;;;;;;;0.40;0.30;;;;;;;2.26;95.44;99306.28;5057521;28;20508;-66
2020/12/30 03:04:14;;;;;;;1.93;0.97;;;;;;;2.22;95.48;99314.03;5057203;28;20450;-65
2020/12/30 03:06:40;;;;;;;0.40;0.30;;;;;;;2.23;94.75;99312.16;5057487;28;20444;-66
2020/12/30 03:09:06;;;;;;;0.40;0.30;;;;;;;2.24;95.19;99316.41;5057578;28;20538;-65
2020/12/30 03:11:32;;;;;;;0.40;0.40;;;;;;;2.22;95.55;99314.03;5057173;28;20486;-66
2020/12/30 03:13:58;;;;;;;0.40;0.30;;;;;;;2.20;95.97;99313.50;5057382;28;20446;-65
2020/12/30 03:16:25;;;;;;;0.60;0.40;;;;;;;2.23;96.46;99317.50;5057289;28;20474;-66
2020/12/30 03:18:52;;;;;;;0.40;0.40;;;;;;;2.26;96.43;99317.75;5057254;28;20798;-66
2020/12/30 03:21:18;;;;;;;0.40;0.30;;;;;;;2.34;96.95;99315.53;5061200;28;20435;-67
2020/12/30 03:23:44;;;;;;;0.50;0.40;;;;;;;2.44;96.23;99315.50;5060432;28;20827;-66
2020/12/30 03:26:10;;;;;;;0.40;0.30;;;;;;;2.44;96.67;99316.28;5060387;28;20480;-66
2020/12/30 03:28:36;;;;;;;0.40;0.23;;;;;;;2.43;96.19;99303.19;5060596;28;20439;-67
2020/12/30 03:31:03;;;;;;;0.43;0.37;;;;;;;2.43;96.78;99312.00;5060143;28;20486;-66
2020/12/30 03:33:30;;;;;;;0.40;0.30;;;;;;;2.40;96.54;99309.91;5059707;28;20971;-65
2020/12/30 03:35:56;;;;;;;1.23;0.70;;;;;;;2.41;96.30;99303.47;5059085;28;20453;-67
2020/12/30 03:38:23;;;;;;;0.53;0.53;;;;;;;2.46;96.38;99314.13;5059286;28;20457;-66
2020/12/30 03:40:49;;;;;;;0.40;0.30;;;;;;;2.44;96.20;99312.81;5058704;28;20447;-67
2020/12/30 03:43:15;;;;;;;0.40;0.30;;;;;;;2.35;95.37;99309.16;5059213;28;20477;-67
2020/12/30 03:45:41;;;;;;;0.40;0.30;;;;;;;2.32;94.82;99323.06;5058290;28;20947;-67
2020/12/30 03:48:07;;;;;;;0.73;0.40;;;;;;;2.28;95.54;99320.13;5059892;28;20453;-66
2020/12/30 03:50:34;;;;;;;0.40;0.30;;;;;;;2.27;95.53;99315.88;5059062;28;20938;-66
2020/12/30 03:53:01;;;;;;;0.40;0.30;;;;;;;2.31;95.98;99324.13;5058557;28;20493;-67
2020/12/30 03:55:27;;;;;;;0.40;0.30;;;;;;;2.31;96.06;99326.81;5059736;28;20465;-66
2020/12/30 03:57:53;;;;;;;0.40;0.30;;;;;;;2.31;96.49;99326.81;5059478;28;20446;-67
2020/12/30 04:00:19;;;;;;;0.40;0.30;;;;;;;2.21;94.73;99322.31;5059212;28;20505;-66
2020/12/30 04:02:45;;;;;;;0.40;0.30;;;;;;;2.16;95.05;99312.44;5076505;22;20508;-62
2020/12/30 04:05:11;;;;;;;0.40;0.30;;;;;;;2.09;94.54;99317.31;5033684;28;20446;-64
2020/12/30 04:07:38;;;;;;;0.50;0.40;;;;;;;2.09;94.11;99322.66;5032581;28;20456;-66
2020/12/30 04:10:05;;;;;;;0.83;0.60;;;;;;;2.07;94.60;99326.66;5032439;28;20446;-65
2020/12/30 04:12:31;;;;;;;0.40;0.30;;;;;;;2.03;94.90;99331.75;5033211;28;20495;-65
2020/12/30 04:14:57;;;;;;;0.40;0.30;;;;;;;1.99;94.69;99330.72;5033067;28;20443;-64
2020/12/30 04:17:23;;;;;;;0.40;0.20;;;;;;;2.03;95.19;99334.44;5032770;28;20453;-64
2020/12/30 04:19:49;;;;;;;0.40;0.30;;;;;;;2.08;96.54;99337.09;5032663;28;20929;-66
2020/12/30 04:22:15;;;;;;;0.50;0.47;;;;;;;2.15;96.39;99339.44;5032988;28;20437;-64
2020/12/30 04:24:42;;;;;;;0.40;0.40;;;;;;;2.18;97.40;99345.03;5033031;28;20475;-65
2020/12/30 04:27:09;;;;;;;0.47;0.33;;;;;;;2.20;97.26;99334.88;5033000;28;20488;-63
2020/12/30 04:29:35;;;;;;;0.40;0.30;;;;;;;2.27;97.02;99334.56;5032931;28;20450;-64
2020/12/30 04:32:01;;;;;;;0.40;0.30;;;;;;;2.34;97.33;99342.25;5033157;28;20481;-63
2020/12/30 04:34:27;;;;;;;0.50;0.40;;;;;;;2.44;96.56;99350.22;5032561;28;20498;-64
2020/12/30 04:36:53;;;;;;;0.40;0.30;;;;;;;2.42;97.05;99350.50;5032742;28;20853;-66
2020/12/30 04:39:19;;;;;;;0.40;0.30;;;;;;;2.45;97.27;99352.63;5032923;28;20439;-61
2020/12/30 04:41:48;;;;;;;1.20;0.80;;;;;;;2.51;97.13;99354.16;5032532;28;20519;-63
2020/12/30 04:44:16;;;;;;;0.40;0.30;;;;;;;2.52;96.83;99350.44;5032727;28;20501;-64
2020/12/30 04:46:43;;;;;;;0.40;0.20;;;;;;;2.52;96.46;99355.78;5032849;28;20480;-64
2020/12/30 04:49:10;;;;;;;0.40;0.30;;;;;;;2.45;96.21;99365.19;5032519;28;20440;-65
2020/12/30 04:51:38;;;;;;;2.30;1.33;;;;;;;2.44;95.34;99363.59;5034638;28;20910;-65
2020/12/30 04:54:04;;;;;;;0.40;0.30;;;;;;;2.44;94.74;99363.59;5036428;28;20469;-64
2020/12/30 04:56:50;;;;;;;0.93;0.67;;;;;;;2.41;94.26;99358.78;5036530;28;20477;-64
2020/12/30 04:59:21;;;;;;;0.40;0.30;;;;;;;2.44;94.03;99369.72;5036174;28;20937;-64
2020/12/30 05:02:02;;;;;;;0.40;0.30;;;;;;;2.41;93.88;99370.28;5036073;28;20789;-63
2020/12/30 05:04:30;;;;;;;1.17;0.87;;;;;;;2.38;93.81;99370.03;5036292;28;20564;-64
2020/12/30 05:07:00;;;;;;;0.40;0.30;;;;;;;2.31;94.42;99373.03;5035525;28;20463;-64
2020/12/30 05:09:26;;;;;;;0.40;0.30;;;;;;;2.34;93.98;99371.66;5036269;28;20439;-65
2020/12/30 05:11:52;;;;;;;0.40;0.30;;;;;;;2.26;94.24;99373.84;5036121;28;20509;-65
2020/12/30 05:14:20;;;;;;;0.43;0.40;;;;;;;2.24;94.47;99385.88;5036133;28;20519;-64
2020/12/30 05:16:46;;;;;;;0.70;0.63;;;;;;;2.16;94.59;99381.09;5036152;28;20445;-64
2020/12/30 05:19:12;;;;;;;0.80;0.50;;;;;;;2.12;94.81;99388.84;5036384;28;20478;-64
2020/12/30 05:21:38;;;;;;;0.40;0.30;;;;;;;2.15;94.38;99392.88;5036458;28;20445;-64
2020/12/30 05:24:05;;;;;;;1.37;0.57;;;;;;;2.06;94.63;99386.50;5035647;28;20477;-64
2020/12/30 05:26:32;;;;;;;1.27;0.80;;;;;;;1.99;95.70;99398.28;5036146;28;20483;-68
2020/12/30 05:28:59;;;;;;;0.40;0.30;;;;;;;1.95;96.02;99396.44;5035892;28;20447;-65
2020/12/30 05:31:28;;;;;;;0.40;0.30;;;;;;;1.95;96.30;99396.44;5035606;28;20522;-65
2020/12/30 05:33:54;;;;;;;2.00;1.80;;;;;;;1.92;96.36;99391.63;5035908;28;20470;-65
2020/12/30 05:36:24;;;;;;;0.50;0.40;;;;;;;1.88;96.69;99391.38;5035518;28;20966;-64
2020/12/30 05:38:51;;;;;;;0.40;0.27;;;;;;;1.82;96.57;99405.03;5035406;28;20862;-66
2020/12/30 05:41:18;;;;;;;0.60;0.40;;;;;;;1.77;97.00;99397.81;5038628;28;20940;-64
2020/12/30 05:43:44;;;;;;;0.40;0.30;;;;;;;1.69;97.17;99401.84;5035814;28;20467;-66
2020/12/30 05:46:10;;;;;;;0.40;0.30;;;;;;;1.60;97.43;99400.81;5034779;28;20478;-67
2020/12/30 05:48:39;;;;;;;0.40;0.30;;;;;;;1.63;97.21;99413.59;5035518;28;20486;-67
2020/12/30 05:51:05;;;;;;;0.40;0.30;;;;;;;1.60;97.02;99402.69;5035438;28;20567;-66
2020/12/30 05:53:31;;;;;;;0.40;0.20;;;;;;;1.51;97.20;99415.78;5035124;28;20981;-67
2020/12/30 05:56:09;;;;;;;0.40;0.30;;;;;;;1.35;96.97;99419.53;5035684;28;20464;-66
2020/12/30 05:58:41;;;;;;;0.40;0.30;;;;;;;1.29;97.36;99429.41;5035568;28;20465;-67
2020/12/30 06:01:27;;;;;;;0.40;0.30;;;;;;;1.31;96.40;99424.59;5035316;28;20476;-65
2020/12/30 06:03:54;;;;;;;0.40;0.30;;;;;;;1.26;96.31;99435.28;5034046;28;20582;-66
2020/12/30 06:06:21;;;;;;;0.40;0.30;;;;;;;1.16;96.61;99428.09;5035029;28;20963;-66
2020/12/30 06:08:49;;;;;;;0.40;0.30;;;;;;;1.19;96.50;99437.41;5035170;28;20474;-66
2020/12/30 06:11:23;;;;;;;0.40;0.20;;;;;;;1.20;96.87;99436.38;5034728;28;21008;-66
2020/12/30 06:13:52;;;;;;;0.70;0.70;;;;;;;1.07;98.21;99444.91;5034671;28;20471;-65
2020/12/30 06:16:20;;;;;;;0.40;0.40;;;;;;;1.09;98.16;99450.75;5035035;28;20863;-66
2020/12/30 06:18:48;;;;;;;0.40;0.30;;;;;;;1.08;97.66;99457.16;5035001;28;20471;-65
2020/12/30 06:21:16;;;;;;;0.50;0.50;;;;;;;1.06;97.34;99461.94;5034938;28;20850;-66
2020/12/30 06:23:43;;;;;;;0.40;0.30;;;;;;;1.08;97.36;99457.16;5034514;28;20505;-65
2020/12/30 06:26:18;;;;;;;0.40;0.30;;;;;;;1.00;97.63;99463.81;5034887;28;20471;-66
2020/12/30 06:28:49;;;;;;;0.40;0.30;;;;;;;1.00;97.72;99467.28;5034536;28;20907;-65
2020/12/30 06:31:16;;;;;;;0.40;0.30;;;;;;;0.99;97.17;99471.00;5034798;28;20526;-67
2020/12/30 06:33:42;;;;;;;0.40;0.30;;;;;;;0.91;98.02;99479.53;5034686;28;20459;-67
2020/12/30 06:36:08;;;;;;;0.50;0.40;;;;;;;0.86;98.27;99484.06;5034604;28;20539;-66
2020/12/30 06:38:35;;;;;;;1.33;1.23;;;;;;;0.88;98.31;99487.25;5034577;28;20454;-67
2020/12/30 06:41:04;;;;;;;0.40;0.30;;;;;;;0.85;98.55;99485.13;5034623;28;20436;-67
2020/12/30 06:43:40;;;;;;;0.40;0.30;;;;;;;0.89;98.01;99492.31;5034430;28;20466;-66
2020/12/30 06:46:07;;;;;;;0.40;0.33;;;;;;;0.90;98.16;99495.78;5034505;28;20454;-69
2020/12/30 06:48:53;;;;;;;0.40;0.30;;;;;;;0.91;98.79;99495.53;5034463;28;20510;-70
2020/12/30 06:51:19;;;;;;;0.40;0.30;;;;;;;0.97;98.80;99497.16;5034544;28;20501;-72
2020/12/30 06:53:53;;;;;;;0.40;0.30;;;;;;;0.98;99.23;99504.06;5034354;28;20463;-70
2020/12/30 06:56:37;;;;;;;0.40;0.30;;;;;;;1.03;98.98;99510.47;5034060;28;20833;-67
2020/12/30 06:59:05;;;;;;;0.40;0.30;;;;;;;1.06;99.49;99502.72;5033052;28;20473;-71
2020/12/30 07:01:55;;;;;;;3.50;0.73;;;;;;;1.10;99.12;99517.13;5033517;28;20431;-70
2020/12/30 07:04:21;;;;;;;0.40;0.30;;;;;;;1.10;99.38;99503.00;5033735;28;20992;-69
2020/12/30 07:06:48;;;;;;;0.40;0.30;;;;;;;1.15;99.20;99501.16;5032864;28;20862;-71
2020/12/30 07:09:15;;;;;;;0.40;0.30;;;;;;;1.19;98.83;99506.75;5033740;28;20485;-69
2020/12/30 07:11:49;;;;;;;0.40;0.30;;;;;;;1.15;98.97;99508.34;5033591;28;21019;-71
2020/12/30 07:14:16;;;;;;;0.40;0.30;;;;;;;1.20;99.60;99514.50;5033576;28;20459;-70
2020/12/30 07:16:46;;;;;;;0.40;0.30;;;;;;;1.22;99.57;99508.88;5033907;28;20446;-70
2020/12/30 07:19:14;;;;;;;0.87;0.73;;;;;;;1.25;99.74;99508.38;5033964;28;20839;-69
2020/12/30 07:21:56;;;;;;;0.40;0.30;;;;;;;1.31;99.76;99514.50;5033879;28;20481;-72
2020/12/30 07:24:25;;;;;;;0.40;0.30;;;;;;;1.30;99.62;99526.25;5034051;28;20467;-66
2020/12/30 07:26:54;;;;;;;1.40;1.30;;;;;;;1.25;99.51;99519.84;5033684;28;20477;-68
2020/12/30 07:29:20;;;;;;;0.40;0.30;;;;;;;1.23;99.47;99527.28;5033690;28;20435;-67
2020/12/30 07:31:48;;;;;;;1.83;0.63;;;;;;;1.24;99.13;99526.25;5033545;28;20490;-66
2020/12/30 07:34:20;;;;;;;0.40;0.30;;;;;;;1.26;99.68;99528.63;5033543;28;20455;-67
2020/12/30 07:36:47;;;;;;;0.40;0.30;;;;;;;1.25;99.27;99529.72;5033840;28;20823;-67
2020/12/30 07:39:15;;;;;;;0.40;0.30;;;;;;;1.24;98.83;99525.44;5033519;28;20486;-66
2020/12/30 07:41:46;;;;;;;0.40;0.30;;;;;;;1.21;98.08;99524.09;5033511;28;20464;-67
2020/12/30 07:44:13;;;;;;;0.50;0.30;;;;;;;1.12;97.82;99536.34;5033371;28;20496;-67
2020/12/30 07:46:41;;;;;;;0.40;0.30;;;;;;;1.10;97.82;99533.13;5033114;28;20478;-66
2020/12/30 07:49:14;;;;;;;1.80;1.70;;;;;;;1.14;97.40;99536.88;5033079;28;20852;-66
2020/12/30 07:51:51;;;;;;;1.13;1.03;;;;;;;1.10;97.33;99543.81;5033460;28;20955;-66
2020/12/30 07:54:19;;;;;;;1.77;0.80;;;;;;;1.07;97.17;99552.34;5033810;28;20497;-67
2020/12/30 07:56:46;;;;;;;0.87;0.67;;;;;;;1.10;98.03;99548.34;5033454;28;20447;-67
2020/12/30 07:59:20;;;;;;;1.27;0.60;;;;;;;1.09;98.31;99552.88;5033244;28;20493;-67
2020/12/30 08:01:57;;;;;;;0.40;0.30;;;;;;;1.15;98.25;99559.00;5033269;28;20458;-68
2020/12/30 08:04:24;;;;;;;0.40;0.30;;;;;;;1.08;97.69;99564.59;5033056;28;20521;-67
2020/12/30 08:06:50;;;;;;;0.40;0.30;;;;;;;1.18;98.00;99559.28;5033193;28;20505;-68
2020/12/30 08:09:17;;;;;;;1.47;0.70;;;;;;;1.24;98.06;99568.13;5033161;28;20210;-67
2020/12/30 08:11:48;;;;;;;0.70;0.60;;;;;;;1.20;97.43;99577.72;5033112;28;20708;-67
2020/12/30 08:14:15;;;;;;;0.40;0.30;;;;;;;1.17;97.68;99579.03;5033033;28;20462;-67
2020/12/30 08:16:51;;;;;;;0.40;0.30;;;;;;;1.16;97.97;99574.75;5033089;28;20431;-67
2020/12/30 08:19:27;;;;;;;0.40;0.40;;;;;;;1.20;97.76;99580.38;5032860;28;20415;-67
2020/12/30 08:22:00;;;;;;;0.40;0.30;;;;;;;1.24;97.72;99582.25;5028499;28;20475;-67
2020/12/30 08:24:29;;;;;;;0.53;0.50;;;;;;;1.30;98.32;99585.72;5012850;28;21003;-68
2020/12/30 08:26:56;;;;;;;0.50;0.40;;;;;;;1.30;98.84;99583.06;5015506;28;20476;-67
2020/12/30 08:29:22;;;;;;;0.50;0.40;;;;;;;1.32;99.62;99590.78;5016948;28;20446;-66
2020/12/30 08:31:53;;;;;;;1.60;1.13;;;;;;;1.38;99.66;99592.41;5020455;28;20522;-67
2020/12/30 08:34:24;;;;;;;0.60;0.40;;;;;;;1.47;99.92;99596.16;5022138;28;20536;-67
2020/12/30 08:36:54;;;;;;;3.23;1.07;;;;;;;1.56;99.90;99591.88;5017098;28;20440;-69
2020/12/30 08:39:25;;;;;;;0.40;0.30;;;;;;;1.57;99.62;99598.81;5017382;28;20475;-66
2020/12/30 08:41:54;;;;;;;0.40;0.33;;;;;;;1.64;99.71;99606.56;5016940;28;20427;-68
2020/12/30 08:44:22;;;;;;;0.80;0.80;;;;;;;1.69;99.62;99590.56;5016920;28;20455;-68
2020/12/30 08:46:53;;;;;;;0.50;0.40;;;;;;;1.74;99.39;99599.38;5016918;28;20530;-68
2020/12/30 08:49:21;;;;;;;0.40;0.30;;;;;;;1.82;99.66;99599.91;5017016;28;20460;-65
2020/12/30 08:51:49;;;;;;;0.53;0.50;;;;;;;1.87;99.83;99605.25;5016435;28;20537;-67
2020/12/30 08:54:16;;;;;;;0.40;0.30;;;;;;;1.93;99.80;99604.16;5016471;28;20904;-68
2020/12/30 08:56:43;;;;;;;0.40;0.30;;;;;;;1.97;99.98;99599.88;5016772;28;20447;-68
2020/12/30 08:59:09;;;;;;;0.40;0.30;;;;;;;2.10;99.32;99603.88;5016732;28;21225;-67
2020/12/30 09:01:36;;;;;;;0.40;0.30;;;;;;;2.14;99.31;99604.94;5016650;28;20495;-68
2020/12/30 09:04:10;;;;;;;0.40;0.30;;;;;;;2.12;99.15;99612.41;5016336;28;21022;-68
2020/12/30 09:06:36;;;;;;;0.40;0.30;;;;;;;2.21;99.14;99605.47;5016686;28;20451;-67
2020/12/30 09:09:10;;;;;;;0.40;0.40;;;;;;;2.33;98.70;99607.84;5016356;28;20474;-67
2020/12/30 09:11:37;;;;;;;2.10;0.97;;;;;;;2.41;98.25;99610.78;5016329;28;20492;-67
2020/12/30 09:14:13;;;;;;;0.40;0.30;;;;;;;2.51;98.31;99617.97;5016395;28;20460;-71
2020/12/30 09:16:58;;;;;;;1.33;0.43;;;;;;;2.57;98.06;99614.22;5016244;28;20969;-68
2020/12/30 09:19:25;;;;;;;0.40;0.30;;;;;;;2.69;97.34;99609.34;5016050;28;20424;-67
2020/12/30 09:21:51;;;;;;;0.50;0.40;;;;;;;2.77;97.00;99622.16;5029274;28;20482;-68
2020/12/30 09:24:17;;;;;;;1.23;1.13;;;;;;;2.86;96.59;99621.59;5035651;28;20466;-66
2020/12/30 09:26:44;;;;;;;0.40;0.30;;;;;;;2.90;95.95;99620.78;5035691;28;20673;-68
2020/12/30 09:29:17;;;;;;;0.40;0.30;;;;;;;2.93;95.61;99628.25;5035540;28;20453;-67
2020/12/30 09:31:55;;;;;;;0.40;0.30;;;;;;;2.99;95.08;99627.16;5035730;28;20482;-68
2020/12/30 09:34:25;;;;;;;0.40;0.30;;;;;;;3.02;95.22;99625.81;5035734;28;20968;-67
2020/12/30 09:36:55;;;;;;;0.40;0.30;;;;;;;3.04;94.40;99619.09;5035382;28;20451;-68
2020/12/30 09:39:22;;;;;;;0.40;0.20;;;;;;;3.10;94.43;99627.09;5035995;28;20462;-67
2020/12/30 09:41:48;;;;;;;0.67;0.63;;;;;;;3.14;93.97;99623.59;5035691;28;20959;-68
2020/12/30 09:44:15;;;;;;;0.40;0.30;;;;;;;3.20;93.42;99624.38;5035783;28;20478;-68
2020/12/30 09:46:51;;;;;;;0.50;0.47;;;;;;;3.22;91.95;99614.19;5035552;28;20450;-68
2020/12/30 09:49:19;;;;;;;0.40;0.30;;;;;;;3.16;91.80;99624.13;5035230;28;20819;-68
2020/12/30 09:51:45;;;;;;;2.33;0.90;;;;;;;3.19;91.97;99623.59;5035345;28;20496;-68
2020/12/30 09:54:11;;;;;;;0.40;0.30;;;;;;;3.19;91.60;99618.25;5035462;28;20916;-68
2020/12/30 09:56:37;;;;;;;0.80;0.63;;;;;;;3.21;91.71;99616.06;5034655;28;20459;-68
2020/12/30 09:59:03;;;;;;;0.73;0.73;;;;;;;3.24;91.50;99618.22;5035518;28;20451;-68
2020/12/30 10:01:30;;;;;;;0.40;0.30;;;;;;;3.34;91.23;99619.22;5034978;28;20486;-68
2020/12/30 10:03:57;;;;;;;0.70;0.50;;;;;;;3.45;91.18;99620.75;5051722;22;20488;-78
2020/12/30 10:06:24;;;;;;;0.57;0.57;;;;;;;3.58;91.44;99624.69;5037028;28;20967;-78
2020/12/30 10:08:51;;;;;;;0.40;0.40;;;;;;;3.63;90.82;99622.78;5035603;28;20454;-78
2020/12/30 10:11:18;;;;;;;0.80;0.50;;;;;;;3.68;90.25;99628.09;5036192;28;20814;-78
2020/12/30 10:13:45;;;;;;;0.60;0.60;;;;;;;3.78;90.32;99619.97;5037295;28;20481;-78
2020/12/30 10:16:11;;;;;;;0.40;0.30;;;;;;;3.89;90.36;99623.38;5036744;28;20536;-78
2020/12/30 10:18:37;;;;;;;1.40;1.13;;;;;;;3.97;90.31;99624.66;5037591;28;20448;-78
2020/12/30 10:21:03;;;;;;;1.77;1.67;;;;;;;4.05;89.94;99618.69;5037006;28;20455;-78
2020/12/30 10:23:31;;;;;;;0.50;0.40;;;;;;;4.15;89.37;99629.31;5036535;28;20460;-77
2020/12/30 10:25:57;;;;;;;0.40;0.30;;;;;;;4.23;88.90;99614.50;5036185;28;20447;-78
2020/12/30 10:28:23;;;;;;;0.80;0.63;;;;;;;4.26;89.00;99614.75;5035578;28;20447;-78
2020/12/30 10:30:49;;;;;;;0.40;0.30;;;;;;;4.35;88.07;99620.28;5036424;28;20866;-77
2020/12/30 10:33:15;;;;;;;0.90;0.70;;;;;;;4.43;88.22;99622.38;5036362;28;20495;-77
2020/12/30 10:35:42;;;;;;;1.80;0.47;;;;;;;4.49;87.73;99631.94;5036703;28;20450;-79
2020/12/30 10:38:08;;;;;;;0.43;0.37;;;;;;;4.53;87.25;99626.81;5036740;28;20809;-78
2020/12/30 10:40:35;;;;;;;1.63;1.37;;;;;;;4.59;87.20;99620.31;5036508;28;20443;-78
2020/12/30 10:43:03;;;;;;;0.50;0.33;;;;;;;4.69;86.51;99628.25;5036644;28;20872;-78
2020/12/30 10:45:30;;;;;;;0.40;0.30;;;;;;;4.77;86.69;99627.59;5036744;28;20440;-77
2020/12/30 10:47:57;;;;;;;0.93;0.50;;;;;;;4.83;86.19;99624.88;5037695;28;20450;-77
2020/12/30 10:50:23;;;;;;;0.40;0.20;;;;;;;4.92;85.88;99623.97;5037494;28;20963;-76
2020/12/30 10:52:50;;;;;;;0.40;0.30;;;;;;;4.91;85.47;99622.34;5038092;28;20487;-77
2020/12/30 10:55:18;;;;;;;0.90;0.73;;;;;;;4.92;85.63;99623.16;5038556;28;20585;-77
2020/12/30 10:57:45;;;;;;;1.27;1.03;;;;;;;4.97;85.62;99628.47;5037775;28;20504;-77
2020/12/30 11:00:11;;;;;;;1.00;0.73;;;;;;;4.98;85.46;99619.31;5037195;28;20443;-77
2020/12/30 11:02:38;;;;;;;0.40;0.30;;;;;;;5.01;85.25;99632.16;5037804;28;20456;-77
2020/12/30 11:05:04;;;;;;;0.40;0.30;;;;;;;5.05;85.73;99620.56;5038002;28;20451;-77
2020/12/30 11:07:30;;;;;;;0.50;0.30;;;;;;;5.16;85.31;99621.22;5039073;28;20451;-77
2020/12/30 11:09:56;;;;;;;0.40;0.27;;;;;;;5.19;84.90;99617.97;5038903;28;20465;-78
2020/12/30 11:12:22;;;;;;;0.40;0.30;;;;;;;5.23;85.26;99613.63;5036562;28;20491;-78
2020/12/30 11:14:49;;;;;;;0.40;0.30;;;;;;;5.34;85.53;99618.84;5036210;28;20447;-80
2020/12/30 11:17:16;;;;;;;0.40;0.30;;;;;;;5.40;84.54;99612.31;5036335;28;20439;-78
2020/12/30 11:19:42;;;;;;;0.40;0.30;;;;;;;5.41;84.03;99614.72;5036241;28;20451;-78
2020/12/30 11:22:09;;;;;;;3.80;1.03;;;;;;;5.47;83.54;99612.75;5035859;28;20463;-78
2020/12/30 11:24:35;;;;;;;0.93;0.63;;;;;;;5.53;83.96;99614.25;5035266;28;20447;-78
2020/12/30 11:27:01;;;;;;;0.73;0.50;;;;;;;5.63;83.56;99614.13;5036085;28;20836;-77
2020/12/30 11:29:27;;;;;;;0.50;0.30;;;;;;;5.71;84.09;99616.16;5035595;28;20493;-78
2020/12/30 11:31:54;;;;;;;1.00;0.40;;;;;;;5.76;83.20;99612.59;5035866;28;20540;-79
2020/12/30 11:34:20;;;;;;;0.80;0.53;;;;;;;5.78;82.10;99613.88;5036175;28;20440;-77
2020/12/30 11:36:47;;;;;;;0.50;0.40;;;;;;;5.85;82.32;99615.41;5035399;28;20455;-78
2020/12/30 11:39:13;;;;;;;1.17;0.60;;;;;;;5.92;81.86;99613.16;5035596;28;20443;-78
2020/12/30 11:41:39;;;;;;;1.27;0.73;;;;;;;6.02;81.77;99612.97;5034940;28;20463;-79
2020/12/30 11:44:05;;;;;;;0.40;0.30;;;;;;;6.22;80.22;99615.34;5035213;28;20443;-79